Time;durP1;ratioP1;P1;durP2;ratioP2;P2;SDS_P1;SDS_P2;PMS_P1;PMS_P2;Temp;Humidity;BMP_temperature;BMP_pressure;BME280_temperature;BME280_humidity;BME280_pressure;Samples;Min_cycle;Max_cycle;Signal;HPM_P1;HPM_P2
2024/03/12 00:01:50;;;;;;;14.83;5.43;;;10.00;99.90;;;;;;4160628;28;20030;-56
2024/03/12 00:03:54;;;;;;;11.47;4.47;;;9.90;99.90;;;;;;4158790;28;20544;-55
2024/03/12 00:05:59;;;;;;;8.90;4.30;;;9.90;99.90;;;;;;4160528;28;20037;-57
2024/03/12 00:08:01;;;;;;;8.93;4.47;;;9.90;99.90;;;;;;4159461;28;20111;-55
2024/03/12 00:10:03;;;;;;;8.40;4.60;;;9.90;99.90;;;;;;4142633;28;20054;-54
2024/03/12 00:12:06;;;;;;;12.90;4.70;;;9.90;99.90;;;;;;4158577;28;20046;-53
2024/03/12 00:14:07;;;;;;;8.80;5.33;;;9.80;99.90;;;;;;4160708;28;20025;-52
2024/03/12 00:16:09;;;;;;;51.53;9.13;;;9.80;99.90;;;;;;4159535;28;20045;-57
2024/03/12 00:18:10;;;;;;;33.37;6.83;;;9.80;99.90;;;;;;4162955;28;20041;-57
2024/03/12 00:20:24;;;;;;;13.17;4.87;;;9.80;99.90;;;;;;4163138;28;20029;-54
2024/03/12 00:22:25;;;;;;;27.57;6.17;;;9.70;99.90;;;;;;4163349;28;20119;-58
2024/03/12 00:24:26;;;;;;;26.63;6.47;;;9.80;99.90;;;;;;4163107;28;20107;-58
2024/03/12 00:26:28;;;;;;;16.37;5.63;;;9.70;99.90;;;;;;4163192;28;20493;-60
2024/03/12 00:28:31;;;;;;;16.93;5.57;;;9.70;99.90;;;;;;4163894;28;20033;-54
2024/03/12 00:30:32;;;;;;;11.27;5.40;;;9.70;99.90;;;;;;4162395;28;20045;-56
2024/03/12 00:32:34;;;;;;;8.30;4.70;;;9.70;99.90;;;;;;4163558;28;20477;-55
2024/03/12 00:34:35;;;;;;;12.00;5.43;;;9.70;99.90;;;;;;4162434;28;20052;-54
2024/03/12 00:36:36;;;;;;;17.87;5.87;;;9.60;99.90;;;;;;4164174;28;20029;-51
2024/03/12 00:38:38;;;;;;;10.23;4.27;;;9.60;99.90;;;;;;4162668;28;20037;-56
2024/03/12 00:40:42;;;;;;;9.73;5.20;;;9.60;99.90;;;;;;4162986;28;20127;-53
2024/03/12 00:42:44;;;;;;;15.83;5.53;;;9.60;99.90;;;;;;4162775;28;20026;-54
2024/03/12 00:44:48;;;;;;;9.93;5.40;;;9.60;99.90;;;;;;4164516;28;20351;-55
2024/03/12 00:46:50;;;;;;;19.20;6.13;;;9.70;99.90;;;;;;4162123;28;20079;-52
2024/03/12 00:48:51;;;;;;;9.33;4.37;;;9.70;99.90;;;;;;4163518;28;20461;-54
2024/03/12 00:50:53;;;;;;;13.60;5.53;;;9.60;99.90;;;;;;4162761;28;20030;-53
2024/03/12 00:52:54;;;;;;;9.27;4.80;;;9.70;99.90;;;;;;4162883;28;20037;-57
2024/03/12 00:54:56;;;;;;;9.37;5.03;;;9.70;99.90;;;;;;4162240;28;20466;-50
2024/03/12 00:56:57;;;;;;;9.60;4.90;;;9.70;99.90;;;;;;4162686;28;21545;-52
2024/03/12 00:58:58;;;;;;;9.43;5.20;;;9.70;99.90;;;;;;4163280;28;20037;-55
2024/03/12 01:01:00;;;;;;;10.97;5.20;;;9.70;99.90;;;;;;4162364;28;20092;-51
2024/03/12 01:03:01;;;;;;;9.13;4.97;;;9.70;99.90;;;;;;4162664;28;20493;-52
2024/03/12 01:05:04;;;;;;;13.60;5.17;;;9.60;99.90;;;;;;4162558;28;20334;-55
2024/03/12 01:07:10;;;;;;;11.93;5.00;;;9.70;99.90;;;;;;4163432;28;20049;-56
2024/03/12 01:09:13;;;;;;;11.77;5.30;;;9.70;99.90;;;;;;4161408;28;20057;-56
2024/03/12 01:11:14;;;;;;;12.40;5.30;;;9.70;99.90;;;;;;4162436;28;20084;-57
2024/03/12 01:13:15;;;;;;;7.17;4.73;;;9.60;99.90;;;;;;4162388;28;20429;-55
2024/03/12 01:15:18;;;;;;;11.57;4.90;;;9.60;99.90;;;;;;4163382;28;20119;-52
2024/03/12 01:17:22;;;;;;;9.93;5.23;;;9.60;99.90;;;;;;4143864;28;20088;-50
2024/03/12 01:19:26;;;;;;;15.33;5.67;;;9.60;99.90;;;;;;4156502;28;20046;-53
2024/03/12 01:21:27;;;;;;;11.37;5.10;;;9.50;99.90;;;;;;4162311;28;20025;-56
2024/03/12 01:23:29;;;;;;;9.23;5.33;;;9.50;99.90;;;;;;4162843;28;20045;-56
2024/03/12 01:25:30;;;;;;;10.07;5.23;;;9.50;99.90;;;;;;4161512;28;20037;-50
2024/03/12 01:27:35;;;;;;;10.37;4.97;;;9.50;99.90;;;;;;4144035;28;20096;-60
2024/03/12 01:29:37;;;;;;;10.23;4.90;;;9.50;99.90;;;;;;4162603;28;20104;-54
2024/03/12 01:31:38;;;;;;;12.00;5.53;;;9.40;99.90;;;;;;4162215;28;20088;-55
2024/03/12 01:33:40;;;;;;;14.60;5.60;;;9.40;99.90;;;;;;4161138;28;20099;-55
2024/03/12 01:35:44;;;;;;;12.00;5.10;;;9.40;99.90;;;;;;4161894;28;20041;-55
2024/03/12 01:37:46;;;;;;;7.87;5.10;;;9.40;99.90;;;;;;4162218;28;20449;-56
2024/03/12 01:39:52;;;;;;;17.47;5.13;;;9.40;99.90;;;;;;4161812;28;20425;-55
2024/03/12 01:41:53;;;;;;;10.77;5.23;;;9.40;99.90;;;;;;4162370;28;20084;-55
2024/03/12 01:43:59;;;;;;;12.17;5.30;;;9.40;99.90;;;;;;4161127;28;20037;-53
2024/03/12 01:46:02;;;;;;;10.63;5.10;;;9.40;99.90;;;;;;4163527;28;20481;-54
2024/03/12 01:48:07;;;;;;;13.03;5.10;;;9.40;99.90;;;;;;4161046;28;20057;-53
2024/03/12 01:50:08;;;;;;;8.20;5.07;;;9.40;99.90;;;;;;4162143;28;20045;-55
2024/03/12 01:52:10;;;;;;;15.37;5.83;;;9.40;99.90;;;;;;4160978;28;20096;-56
2024/03/12 01:54:11;;;;;;;16.47;6.93;;;9.30;99.90;;;;;;4162616;28;20099;-56
2024/03/12 01:56:12;;;;;;;9.43;5.33;;;9.30;99.90;;;;;;4160671;28;20037;-56
2024/03/12 01:58:18;;;;;;;12.53;5.77;;;9.30;99.90;;;;;;4162154;28;20111;-56
2024/03/12 02:00:20;;;;;;;11.57;5.00;;;9.20;99.90;;;;;;4161216;28;20133;-61
2024/03/12 02:02:21;;;;;;;11.00;5.90;;;9.20;99.90;;;;;;4162358;28;20405;-55
2024/03/12 02:04:22;;;;;;;12.37;5.07;;;9.10;99.90;;;;;;4160805;28;20037;-51
2024/03/12 02:06:24;;;;;;;10.47;5.57;;;9.10;99.90;;;;;;4161818;28;20045;-53
2024/03/12 02:08:25;;;;;;;10.90;5.23;;;9.00;99.90;;;;;;4161994;28;20375;-53
2024/03/12 02:10:26;;;;;;;13.40;5.27;;;9.00;99.90;;;;;;4161094;28;20398;-50
2024/03/12 02:12:28;;;;;;;10.33;5.30;;;9.00;99.90;;;;;;4161379;28;20087;-53
2024/03/12 02:14:29;;;;;;;13.77;5.93;;;9.10;99.90;;;;;;4143120;28;20088;-53
2024/03/12 02:16:30;;;;;;;10.33;5.00;;;9.10;99.90;;;;;;4162696;28;20025;-57
2024/03/12 02:18:32;;;;;;;10.30;6.27;;;9.10;99.90;;;;;;4161472;28;20127;-52
2024/03/12 02:20:34;;;;;;;17.67;5.70;;;9.10;99.90;;;;;;4162647;28;21020;-51
2024/03/12 02:22:36;;;;;;;8.80;4.80;;;9.10;99.90;;;;;;4160853;28;20021;-56
2024/03/12 02:24:37;;;;;;;12.83;5.83;;;9.10;99.90;;;;;;4162637;28;20456;-52
2024/03/12 02:26:38;;;;;;;12.00;6.13;;;9.10;99.90;;;;;;4160782;28;20061;-54
2024/03/12 02:28:40;;;;;;;11.93;5.40;;;9.10;99.90;;;;;;4161484;28;20486;-57
2024/03/12 02:30:41;;;;;;;12.57;5.50;;;9.10;99.90;;;;;;4161212;28;20433;-57
2024/03/12 02:32:42;;;;;;;12.70;6.37;;;9.10;99.90;;;;;;4160730;28;20110;-55
2024/03/12 02:34:44;;;;;;;10.87;5.63;;;9.10;99.90;;;;;;4161064;28;20091;-51
2024/03/12 02:36:46;;;;;;;13.17;5.93;;;9.10;99.90;;;;;;4161786;28;20041;-53
2024/03/12 02:38:47;;;;;;;8.20;5.47;;;9.10;99.90;;;;;;4160784;28;20104;-55
2024/03/12 02:40:49;;;;;;;13.30;5.40;;;9.00;99.90;;;;;;4160499;28;20106;-52
2024/03/12 02:42:50;;;;;;;12.90;5.60;;;9.00;99.90;;;;;;4160696;28;20436;-55
2024/03/12 02:44:51;;;;;;;11.73;5.77;;;8.90;99.90;;;;;;4143898;28;20089;-52
2024/03/12 02:46:54;;;;;;;10.13;5.37;;;8.90;99.90;;;;;;4161867;28;20444;-54
2024/03/12 02:48:56;;;;;;;14.03;6.03;;;8.80;99.90;;;;;;4160023;28;20041;-51
2024/03/12 02:50:57;;;;;;;15.10;5.40;;;8.80;99.90;;;;;;4161190;28;20045;-55
2024/03/12 02:52:58;;;;;;;11.57;5.80;;;8.70;99.90;;;;;;4141692;28;20049;-51
2024/03/12 02:55:00;;;;;;;12.07;5.70;;;8.70;99.90;;;;;;4161471;28;20438;-52
2024/03/12 02:57:02;;;;;;;13.73;6.13;;;8.70;99.90;;;;;;4160722;28;20038;-57
2024/03/12 02:59:03;;;;;;;13.33;5.40;;;8.70;99.90;;;;;;4161948;28;20103;-56
2024/03/12 03:01:04;;;;;;;9.80;5.30;;;8.70;99.90;;;;;;4159822;28;20064;-56
2024/03/12 03:03:06;;;;;;;11.50;5.93;;;8.70;99.90;;;;;;4161537;28;20084;-56
2024/03/12 03:05:11;;;;;;;13.63;5.73;;;8.80;99.90;;;;;;4159748;28;20178;-56
2024/03/12 03:07:16;;;;;;;12.17;5.97;;;8.80;99.90;;;;;;4161753;28;20429;-55
2024/03/12 03:09:18;;;;;;;10.63;6.13;;;8.80;99.90;;;;;;4159676;28;20521;-54
2024/03/12 03:11:19;;;;;;;14.27;6.47;;;8.80;99.90;;;;;;4160191;28;20104;-57
2024/03/12 03:13:21;;;;;;;15.57;7.13;;;8.80;99.90;;;;;;4156619;28;20060;-57
2024/03/12 03:15:22;;;;;;;11.77;5.60;;;8.70;99.90;;;;;;4161132;28;20095;-56
2024/03/12 03:17:23;;;;;;;14.37;7.03;;;8.70;99.90;;;;;;4161093;28;20804;-55
2024/03/12 03:19:25;;;;;;;13.47;5.70;;;8.70;99.90;;;;;;4160679;28;20029;-51
2024/03/12 03:21:27;;;;;;;15.07;6.67;;;8.60;99.90;;;;;;4161240;28;20041;-52
2024/03/12 03:23:29;;;;;;;14.37;6.50;;;8.60;99.90;;;;;;4159365;28;20049;-50
2024/03/12 03:25:30;;;;;;;13.27;6.10;;;8.60;99.90;;;;;;4143292;28;20042;-56
2024/03/12 03:27:31;;;;;;;10.60;6.13;;;8.60;99.90;;;;;;4160330;28;20472;-55
2024/03/12 03:29:34;;;;;;;13.20;5.90;;;8.60;99.90;;;;;;4142740;28;20387;-56
2024/03/12 03:31:35;;;;;;;12.30;6.63;;;8.50;99.90;;;;;;4142403;28;20054;-57
2024/03/12 03:33:45;;;;;;;15.43;6.20;;;8.50;99.90;;;;;;4159877;28;20049;-57
2024/03/12 03:35:46;;;;;;;15.70;6.63;;;8.60;99.90;;;;;;4160230;28;20379;-56
2024/03/12 03:37:48;;;;;;;12.57;6.23;;;8.60;99.90;;;;;;4160391;28;20391;-58
2024/03/12 03:39:49;;;;;;;16.97;7.23;;;8.50;99.90;;;;;;4159491;28;20393;-58
2024/03/12 03:41:51;;;;;;;17.77;6.60;;;8.50;99.90;;;;;;4160030;28;20033;-57
2024/03/12 03:43:53;;;;;;;12.87;6.43;;;8.50;99.90;;;;;;4160032;28;20025;-60
2024/03/12 03:45:54;;;;;;;15.07;6.33;;;8.50;99.90;;;;;;4160499;28;20097;-58
2024/03/12 03:47:55;;;;;;;14.00;6.90;;;8.50;99.90;;;;;;4160044;28;20033;-55
2024/03/12 03:49:57;;;;;;;13.73;6.27;;;8.50;99.90;;;;;;4160099;28;20080;-53
2024/03/12 03:51:59;;;;;;;9.57;6.50;;;8.50;99.90;;;;;;4160276;28;20057;-52
2024/03/12 03:54:01;;;;;;;11.67;6.10;;;8.50;99.90;;;;;;4159869;28;20037;-59
2024/03/12 03:56:03;;;;;;;16.77;6.60;;;8.50;99.90;;;;;;4160998;28;20095;-51
2024/03/12 03:58:06;;;;;;;14.87;6.33;;;8.50;99.90;;;;;;4158704;28;20047;-58
2024/03/12 04:00:14;;;;;;;13.40;6.30;;;8.50;99.90;;;;;;4148713;28;20474;-59
2024/03/12 04:02:21;;;;;;;13.87;6.13;;;8.40;99.90;;;;;;4157848;28;20029;-55
2024/03/12 04:04:22;;;;;;;17.93;7.43;;;8.40;99.90;;;;;;4160530;28;20560;-57
2024/03/12 04:06:24;;;;;;;11.70;6.43;;;8.40;99.90;;;;;;4159391;28;20079;-58
2024/03/12 04:08:25;;;;;;;17.13;7.10;;;8.40;99.90;;;;;;4160191;28;20045;-55
2024/03/12 04:10:26;;;;;;;11.83;5.73;;;8.30;99.90;;;;;;4159312;28;20469;-59
2024/03/12 04:12:28;;;;;;;13.43;7.20;;;8.40;99.90;;;;;;4159921;28;20041;-59
2024/03/12 04:14:30;;;;;;;17.20;6.07;;;8.30;99.90;;;;;;4158693;28;20418;-58
2024/03/12 04:16:31;;;;;;;15.93;7.40;;;8.40;99.90;;;;;;4161113;28;20038;-61
2024/03/12 04:18:35;;;;;;;17.70;8.90;;;8.30;99.90;;;;;;4159725;28;20505;-60
2024/03/12 04:20:36;;;;;;;16.33;8.57;;;8.30;99.90;;;;;;4160440;28;20037;-60
2024/03/12 04:22:39;;;;;;;20.17;9.30;;;8.30;99.90;;;;;;4159739;28;20037;-59
2024/03/12 04:24:40;;;;;;;16.20;10.23;;;8.30;99.90;;;;;;4141668;28;20825;-59
2024/03/12 04:26:45;;;;;;;18.50;8.90;;;8.30;99.90;;;;;;4158602;28;20068;-57
2024/03/12 04:28:46;;;;;;;17.30;7.67;;;8.30;99.90;;;;;;4158995;28;20049;-61
2024/03/12 04:30:51;;;;;;;15.63;8.17;;;8.30;99.90;;;;;;4159023;28;20041;-59
2024/03/12 04:32:52;;;;;;;19.00;7.90;;;8.40;99.90;;;;;;4159721;28;20030;-59
2024/03/12 04:34:55;;;;;;;14.90;6.63;;;8.30;99.90;;;;;;4160213;28;20037;-55
2024/03/12 04:36:58;;;;;;;20.27;9.17;;;8.40;99.90;;;;;;4158530;28;20100;-59
2024/03/12 04:38:59;;;;;;;28.40;15.13;;;8.40;99.90;;;;;;4159761;28;20042;-58
2024/03/12 04:41:01;;;;;;;16.73;9.00;;;8.40;99.90;;;;;;4158916;28;20548;-59
2024/03/12 04:43:02;;;;;;;15.97;7.70;;;8.50;99.90;;;;;;4160006;28;21141;-59
2024/03/12 04:45:05;;;;;;;16.27;7.30;;;8.50;99.90;;;;;;4158824;28;20524;-60
2024/03/12 04:47:06;;;;;;;18.53;8.33;;;8.50;99.90;;;;;;4160010;28;20445;-58
2024/03/12 04:49:07;;;;;;;15.07;8.87;;;8.50;99.90;;;;;;4158189;28;20413;-56
2024/03/12 04:51:09;;;;;;;16.83;7.30;;;8.50;99.90;;;;;;4159207;28;20045;-54
2024/03/12 04:53:10;;;;;;;17.50;7.87;;;8.60;99.90;;;;;;4158540;28;20029;-56
2024/03/12 04:55:13;;;;;;;13.63;7.37;;;8.60;99.90;;;;;;4159274;28;20061;-53
2024/03/12 04:57:14;;;;;;;12.13;7.03;;;8.60;99.90;;;;;;4159450;28;20917;-54
2024/03/12 04:59:16;;;;;;;13.00;7.00;;;8.60;99.90;;;;;;4159323;28;20460;-53
2024/03/12 05:01:18;;;;;;;21.37;7.93;;;8.60;99.90;;;;;;4160302;28;20454;-57
2024/03/12 05:03:19;;;;;;;19.10;7.07;;;8.60;99.90;;;;;;4160692;28;20107;-55
2024/03/12 05:05:21;;;;;;;10.63;6.47;;;8.60;99.90;;;;;;4163914;28;20064;-53
2024/03/12 05:07:22;;;;;;;15.27;7.83;;;8.60;99.90;;;;;;4162650;28;20076;-55
2024/03/12 05:09:24;;;;;;;14.67;6.83;;;8.70;99.90;;;;;;4163137;28;20049;-59
2024/03/12 05:11:25;;;;;;;15.70;6.50;;;8.70;99.90;;;;;;4161094;28;20099;-49
2024/03/12 05:13:26;;;;;;;14.50;8.07;;;8.70;99.90;;;;;;4163072;28;20041;-55
2024/03/12 05:15:28;;;;;;;14.70;8.40;;;8.70;99.90;;;;;;4160998;28;20111;-55
2024/03/12 05:17:29;;;;;;;18.87;8.73;;;8.70;99.90;;;;;;4159502;28;20095;-59
2024/03/12 05:19:30;;;;;;;17.17;9.03;;;8.70;99.90;;;;;;4152550;28;20030;-58
2024/03/12 05:21:31;;;;;;;16.03;8.80;;;8.70;99.90;;;;;;4162420;28;20095;-58
2024/03/12 05:23:33;;;;;;;18.17;8.33;;;8.60;99.90;;;;;;4162255;28;20091;-57
2024/03/12 05:25:41;;;;;;;15.13;7.77;;;8.60;99.90;;;;;;4163045;28;20025;-54
2024/03/12 05:27:43;;;;;;;16.43;7.33;;;8.60;99.90;;;;;;4161778;28;20497;-56
2024/03/12 05:29:52;;;;;;;15.53;7.20;;;8.60;99.90;;;;;;4161619;28;20045;-62
2024/03/12 05:31:53;;;;;;;14.17;7.37;;;8.60;99.90;;;;;;4162400;28;20068;-56
2024/03/12 05:33:55;;;;;;;20.80;8.03;;;8.60;99.90;;;;;;4160795;28;20494;-52
2024/03/12 05:35:56;;;;;;;14.77;7.47;;;8.60;99.90;;;;;;4162336;28;20026;-62
2024/03/12 05:38:08;;;;;;;13.87;7.30;;;8.70;99.90;;;;;;4161128;28;20045;-54
2024/03/12 05:40:21;;;;;;;13.40;6.77;;;8.70;99.90;;;;;;4161502;28;20065;-54
2024/03/12 05:49:21;;;;;;;16.58;7.88;;;8.70;99.90;;;;;;4162429;28;20111;-61
2024/03/12 05:51:22;;;;;;;17.37;8.20;;;8.80;99.90;;;;;;4162496;28;20115;-61
2024/03/12 05:53:24;;;;;;;15.27;8.17;;;8.70;99.90;;;;;;4161577;28;20041;-61
2024/03/12 05:55:25;;;;;;;20.23;9.00;;;8.80;99.90;;;;;;4161233;28;20470;-60
2024/03/12 05:57:28;;;;;;;16.50;7.90;;;8.80;99.90;;;;;;4162289;28;20021;-60
2024/03/12 05:59:30;;;;;;;13.60;7.23;;;8.80;99.90;;;;;;4160304;28;20045;-59
2024/03/12 06:01:32;;;;;;;16.50;9.03;;;8.80;99.90;;;;;;4161206;28;20053;-59
2024/03/12 06:03:36;;;;;;;24.43;8.60;;;8.90;99.90;;;;;;4161577;28;20060;-59
2024/03/12 06:05:37;;;;;;;13.90;8.77;;;8.90;99.90;;;;;;4162428;28;20033;-60
2024/03/12 06:07:41;;;;;;;16.90;8.30;;;8.90;99.90;;;;;;4160541;28;20532;-61
2024/03/12 06:09:42;;;;;;;14.60;8.03;;;9.00;99.90;;;;;;4161640;28;20528;-59
2024/03/12 06:11:44;;;;;;;16.57;7.77;;;8.90;99.90;;;;;;4160433;28;20038;-61
2024/03/12 06:13:46;;;;;;;17.47;8.30;;;8.90;99.90;;;;;;4161483;28;20461;-59
2024/03/12 06:15:49;;;;;;;17.13;7.70;;;8.90;99.90;;;;;;4160507;28;20041;-61
2024/03/12 06:17:51;;;;;;;15.87;8.77;;;8.90;99.90;;;;;;4162096;28;20034;-63
2024/03/12 06:19:52;;;;;;;17.73;8.90;;;8.90;99.90;;;;;;4160544;28;20549;-58
2024/03/12 06:21:53;;;;;;;16.80;7.87;;;9.00;99.90;;;;;;4161172;28;20045;-59
2024/03/12 06:23:55;;;;;;;18.57;8.13;;;9.00;99.90;;;;;;4161616;28;20099;-59
2024/03/12 06:25:56;;;;;;;14.00;8.07;;;9.10;99.90;;;;;;4160648;28;20095;-57
2024/03/12 06:28:05;;;;;;;25.90;8.53;;;9.10;99.90;;;;;;4161184;28;20049;-58
2024/03/12 06:30:06;;;;;;;14.30;7.57;;;9.10;99.90;;;;;;4160503;28;20708;-60
2024/03/12 06:32:09;;;;;;;12.97;8.07;;;9.20;99.90;;;;;;4161896;28;20104;-58
2024/03/12 06:34:10;;;;;;;13.80;7.40;;;9.20;99.90;;;;;;4160627;28;20413;-58
2024/03/12 06:36:15;;;;;;;75.57;11.97;;;9.20;99.90;;;;;;4161423;28;20045;-57
2024/03/12 06:38:20;;;;;;;17.83;7.97;;;9.20;99.90;;;;;;4161332;28;20091;-57
2024/03/12 06:40:25;;;;;;;30.60;8.87;;;9.20;99.90;;;;;;4162222;28;20041;-59
2024/03/12 06:42:29;;;;;;;21.47;9.13;;;9.30;99.90;;;;;;4160999;28;20084;-57
2024/03/12 06:44:31;;;;;;;15.10;8.37;;;9.30;99.90;;;;;;4161406;28;20071;-58
2024/03/12 06:46:33;;;;;;;32.97;12.50;;;9.30;99.90;;;;;;4160550;28;20041;-58
2024/03/12 06:48:38;;;;;;;18.97;11.27;;;9.30;99.90;;;;;;4143585;28;20054;-57
2024/03/12 06:50:39;;;;;;;17.70;10.90;;;9.30;99.90;;;;;;4160789;28;20037;-57
2024/03/12 06:52:47;;;;;;;22.87;11.07;;;9.40;99.90;;;;;;4160917;28;20034;-57
2024/03/12 06:54:50;;;;;;;18.27;10.53;;;9.40;99.90;;;;;;4160349;28;20135;-60
2024/03/12 06:56:53;;;;;;;15.60;9.33;;;9.50;99.90;;;;;;4161962;28;20041;-57
2024/03/12 06:58:56;;;;;;;19.07;9.83;;;9.50;99.90;;;;;;4160882;28;20021;-56
2024/03/12 07:00:58;;;;;;;17.40;10.10;;;9.60;99.90;;;;;;4160868;28;20049;-58
2024/03/12 07:03:02;;;;;;;22.33;10.13;;;9.70;99.90;;;;;;4160238;28;20106;-61
2024/03/12 07:05:07;;;;;;;19.03;8.77;;;9.70;99.90;;;;;;4160785;28;20265;-61
2024/03/12 07:07:10;;;;;;;15.87;9.13;;;9.70;99.90;;;;;;4160924;28;20030;-59
2024/03/12 07:09:22;;;;;;;17.77;9.43;;;9.70;99.90;;;;;;4160283;28;20091;-58
2024/03/12 07:11:25;;;;;;;16.80;10.40;;;9.80;99.90;;;;;;4160294;28;20061;-60
2024/03/12 07:13:27;;;;;;;17.17;9.13;;;9.80;99.90;;;;;;4160075;28;20103;-60
2024/03/12 07:15:31;;;;;;;22.17;8.63;;;9.80;99.90;;;;;;4161484;28;20056;-60
2024/03/12 07:17:33;;;;;;;14.47;8.30;;;9.80;99.90;;;;;;4159999;28;20096;-61
2024/03/12 07:19:38;;;;;;;16.23;8.43;;;9.80;99.90;;;;;;4160637;28;20038;-61
2024/03/12 07:21:39;;;;;;;16.50;9.30;;;9.70;99.90;;;;;;4160589;28;20052;-58
2024/03/12 07:23:40;;;;;;;20.43;10.33;;;9.70;99.90;;;;;;4161623;28;20343;-57
2024/03/12 07:25:43;;;;;;;22.73;10.00;;;9.80;99.90;;;;;;4159834;28;20099;-60
2024/03/12 07:27:44;;;;;;;24.27;9.13;;;9.80;99.90;;;;;;4160595;28;20152;-60
2024/03/12 07:29:45;;;;;;;16.70;9.70;;;9.80;99.90;;;;;;4159264;28;20051;-60
2024/03/12 07:31:46;;;;;;;17.13;7.97;;;9.90;99.90;;;;;;4161285;28;20037;-59
2024/03/12 07:33:48;;;;;;;20.40;9.00;;;9.90;99.90;;;;;;4159356;28;20041;-60
2024/03/12 07:35:49;;;;;;;20.17;10.57;;;9.90;99.90;;;;;;4160534;28;20083;-58
2024/03/12 07:37:51;;;;;;;18.03;8.97;;;10.00;99.90;;;;;;4159425;28;20046;-61
2024/03/12 07:39:52;;;;;;;16.63;8.97;;;10.00;99.90;;;;;;4160012;28;20563;-59
2024/03/12 07:41:54;;;;;;;31.30;16.30;;;10.00;99.90;;;;;;4159503;28;20061;-59
2024/03/12 07:43:56;;;;;;;18.80;10.20;;;10.00;99.90;;;;;;4159949;28;20095;-61
2024/03/12 07:45:57;;;;;;;14.27;8.50;;;10.00;99.90;;;;;;4161028;28;20102;-59
2024/03/12 07:47:59;;;;;;;19.93;9.70;;;10.00;99.90;;;;;;4159855;28;20079;-60
2024/03/12 07:50:02;;;;;;;20.00;8.87;;;10.00;99.90;;;;;;4160258;28;20057;-59
2024/03/12 07:52:05;;;;;;;14.13;7.60;;;10.10;99.90;;;;;;4159437;28;20033;-61
2024/03/12 07:54:06;;;;;;;17.17;9.10;;;10.10;99.90;;;;;;4161084;28;20037;-61
2024/03/12 07:56:09;;;;;;;15.37;8.63;;;10.10;99.90;;;;;;4159214;28;20095;-62
2024/03/12 07:58:12;;;;;;;20.70;9.33;;;10.10;99.90;;;;;;4160202;28;20045;-59
2024/03/12 08:00:17;;;;;;;17.77;9.43;;;10.20;99.90;;;;;;4159832;28;20088;-59
2024/03/12 08:02:21;;;;;;;16.87;8.47;;;10.20;99.90;;;;;;4160876;28;20083;-59
2024/03/12 08:04:25;;;;;;;17.63;8.13;;;10.20;99.90;;;;;;4141617;28;20612;-60
2024/03/12 08:06:26;;;;;;;15.20;8.50;;;10.20;99.90;;;;;;4160209;28;20478;-59
2024/03/12 08:08:27;;;;;;;14.97;7.50;;;10.20;99.90;;;;;;4159189;28;20091;-58
2024/03/12 08:10:28;;;;;;;13.53;7.57;;;10.20;99.90;;;;;;4160229;28;20104;-58
2024/03/12 08:12:30;;;;;;;18.77;7.33;;;10.20;99.90;;;;;;4159012;28;20034;-61
2024/03/12 08:14:32;;;;;;;18.20;8.37;;;10.20;99.90;;;;;;4160057;28;20165;-59
2024/03/12 08:16:33;;;;;;;14.50;7.80;;;10.20;99.90;;;;;;4159787;28;20033;-59
2024/03/12 08:18:35;;;;;;;14.83;7.33;;;10.20;99.90;;;;;;4159910;28;20034;-59
2024/03/12 08:20:36;;;;;;;14.73;7.07;;;10.20;99.90;;;;;;4160303;28;20037;-57
2024/03/12 08:22:38;;;;;;;15.63;7.97;;;10.30;99.90;;;;;;4159198;28;20042;-58
2024/03/12 08:24:39;;;;;;;14.70;7.40;;;10.30;99.90;;;;;;4159777;28;20470;-59
2024/03/12 08:26:42;;;;;;;12.17;7.10;;;10.30;99.90;;;;;;4158860;28;20049;-60
2024/03/12 08:28:45;;;;;;;20.87;8.43;;;10.40;99.90;;;;;;4160160;28;20041;-58
2024/03/12 08:30:46;;;;;;;14.50;6.80;;;10.40;99.90;;;;;;4159770;28;20091;-60
2024/03/12 08:32:48;;;;;;;13.30;8.27;;;10.50;99.90;;;;;;4159716;28;20095;-59
2024/03/12 08:34:50;;;;;;;16.70;7.77;;;10.60;99.90;;;;;;4159104;28;20041;-59
2024/03/12 08:36:52;;;;;;;17.13;8.27;;;10.60;99.90;;;;;;4160708;28;20091;-60
2024/03/12 08:38:54;;;;;;;12.27;7.10;;;10.60;99.90;;;;;;4162470;28;20030;-60
2024/03/12 08:40:56;;;;;;;15.83;7.27;;;10.60;99.90;;;;;;4163951;28;20458;-59
2024/03/12 08:42:57;;;;;;;11.60;6.80;;;10.60;99.90;;;;;;4162097;28;20050;-60
2024/03/12 08:44:58;;;;;;;19.67;8.37;;;10.50;99.90;;;;;;4162756;28;20493;-61
2024/03/12 08:47:00;;;;;;;26.93;10.07;;;10.60;99.90;;;;;;4163342;28;20026;-56
2024/03/12 08:49:01;;;;;;;16.63;8.70;;;10.80;99.90;;;;;;4163029;28;20126;-61
2024/03/12 08:51:03;;;;;;;16.00;7.67;;;10.70;99.90;;;;;;4162996;28;20072;-57
2024/03/12 08:53:05;;;;;;;14.03;7.00;;;10.70;99.90;;;;;;4162556;28;20045;-60
2024/03/12 08:55:07;;;;;;;15.63;7.50;;;10.70;99.90;;;;;;4162933;28;20025;-59
2024/03/12 08:57:08;;;;;;;19.47;8.17;;;10.60;99.90;;;;;;4162932;28;20022;-60
2024/03/12 08:59:15;;;;;;;16.83;8.40;;;10.60;99.90;;;;;;4163451;28;20079;-60
2024/03/12 09:01:18;;;;;;;19.67;8.27;;;10.70;99.90;;;;;;4161582;28;20037;-61
2024/03/12 09:03:20;;;;;;;16.33;7.43;;;10.70;99.90;;;;;;4162946;28;20107;-61
2024/03/12 09:05:23;;;;;;;13.07;6.80;;;10.70;99.90;;;;;;4161723;28;20042;-59
2024/03/12 09:07:24;;;;;;;15.67;7.80;;;10.70;99.90;;;;;;4163284;28;20029;-60
2024/03/12 09:09:26;;;;;;;13.87;7.90;;;10.70;99.90;;;;;;4161847;28;20064;-62
2024/03/12 09:11:27;;;;;;;15.70;7.60;;;10.70;99.90;;;;;;4162387;28;20053;-61
2024/03/12 09:13:31;;;;;;;18.93;7.20;;;10.70;99.90;;;;;;4161684;28;20107;-58
2024/03/12 09:15:32;;;;;;;15.33;7.70;;;10.80;99.90;;;;;;4163380;28;20037;-59
2024/03/12 09:17:37;;;;;;;16.97;7.70;;;10.90;99.90;;;;;;4162573;28;20111;-59
2024/03/12 09:19:38;;;;;;;17.00;7.00;;;10.90;99.90;;;;;;4163211;28;20041;-56
2024/03/12 09:21:39;;;;;;;15.90;6.97;;;10.90;99.90;;;;;;4161317;28;20037;-59
2024/03/12 09:23:42;;;;;;;15.27;9.17;;;10.90;99.90;;;;;;4162108;28;20049;-59
2024/03/12 09:25:44;;;;;;;15.23;7.90;;;10.90;99.90;;;;;;4161200;28;20056;-58
2024/03/12 09:27:46;;;;;;;15.23;7.60;;;11.00;99.90;;;;;;4162589;28;20123;-57
2024/03/12 09:29:47;;;;;;;17.73;8.07;;;11.10;99.90;;;;;;4162581;28;20064;-57
2024/03/12 09:31:49;;;;;;;16.77;8.97;;;11.20;99.90;;;;;;4161420;28;20026;-58
2024/03/12 09:33:51;;;;;;;12.30;7.80;;;11.30;99.90;;;;;;4161928;28;20045;-60
2024/03/12 09:35:53;;;;;;;14.13;7.67;;;11.50;99.90;;;;;;4161205;28;20472;-58
2024/03/12 09:37:55;;;;;;;13.37;7.43;;;11.60;99.90;;;;;;4162431;28;20045;-55
2024/03/12 09:39:57;;;;;;;15.63;7.97;;;11.60;99.90;;;;;;4161825;28;20099;-58
2024/03/12 09:41:58;;;;;;;17.77;9.00;;;11.60;99.90;;;;;;4162875;28;20071;-59
2024/03/12 09:44:01;;;;;;;16.20;9.03;;;11.70;99.90;;;;;;4160860;28;20046;-59
2024/03/12 09:46:03;;;;;;;18.63;7.37;;;11.80;99.90;;;;;;4163115;28;20029;-59
2024/03/12 09:48:08;;;;;;;21.83;8.63;;;11.80;99.90;;;;;;4160536;28;20140;-57
2024/03/12 09:50:11;;;;;;;14.77;7.77;;;11.80;99.90;;;;;;4162090;28;20038;-61
2024/03/12 09:52:13;;;;;;;13.47;7.83;;;11.80;99.90;;;;;;4143281;28;20034;-59
2024/03/12 09:54:14;;;;;;;16.70;8.33;;;11.80;99.90;;;;;;4161944;28;20037;-58
2024/03/12 09:56:17;;;;;;;14.47;7.20;;;11.70;99.90;;;;;;4161444;28;20029;-58
2024/03/12 09:58:19;;;;;;;19.37;8.63;;;11.60;99.90;;;;;;4161723;28;20042;-58
2024/03/12 10:00:24;;;;;;;18.87;8.07;;;11.60;99.90;;;;;;4161904;28;20402;-60
2024/03/12 10:02:26;;;;;;;11.93;7.60;;;11.50;99.90;;;;;;4162331;28;20037;-57
2024/03/12 10:04:28;;;;;;;14.57;6.53;;;11.50;99.90;;;;;;4162049;28;20485;-57
2024/03/12 10:06:29;;;;;;;12.07;7.13;;;11.50;99.90;;;;;;4160461;28;20111;-56
2024/03/12 10:08:31;;;;;;;21.97;8.37;;;11.60;99.90;;;;;;4161633;28;20055;-58
2024/03/12 10:10:39;;;;;;;17.77;8.27;;;11.60;99.90;;;;;;4160428;28;20045;-59
2024/03/12 10:12:40;;;;;;;13.80;8.57;;;11.50;99.90;;;;;;4161565;28;20041;-58
2024/03/12 10:14:44;;;;;;;19.17;9.10;;;11.60;99.90;;;;;;4161127;28;20091;-59
2024/03/12 10:16:46;;;;;;;17.27;7.43;;;11.60;99.90;;;;;;4162848;28;20033;-58
2024/03/12 10:18:47;;;;;;;15.73;8.17;;;11.70;99.90;;;;;;4161261;28;20084;-59
2024/03/12 10:20:56;;;;;;;14.47;8.20;;;11.70;99.90;;;;;;4162544;28;20098;-59
2024/03/12 10:23:09;;;;;;;13.20;7.73;;;11.70;99.90;;;;;;4161173;28;20038;-58
2024/03/12 10:25:10;;;;;;;21.00;9.03;;;11.60;99.90;;;;;;4161865;28;20121;-59
2024/03/12 10:27:14;;;;;;;17.13;8.17;;;11.60;99.90;;;;;;4161053;28;20095;-56
2024/03/12 10:29:20;;;;;;;20.13;8.80;;;11.60;99.90;;;;;;4162151;28;20143;-57
2024/03/12 10:31:29;;;;;;;21.93;7.93;;;11.70;99.90;;;;;;4161076;28;20423;-58
2024/03/12 10:33:30;;;;;;;16.50;7.67;;;11.70;99.90;;;;;;4162423;28;20486;-57
2024/03/12 10:35:37;;;;;;;16.03;7.60;;;11.70;99.90;;;;;;4160118;28;20041;-57
2024/03/12 10:37:38;;;;;;;15.83;6.80;;;11.60;99.90;;;;;;4161112;28;20107;-59
2024/03/12 10:39:42;;;;;;;11.30;6.37;;;11.70;99.90;;;;;;4160710;28;20053;-59
2024/03/12 10:41:43;;;;;;;16.10;7.30;;;11.70;99.90;;;;;;4161485;28;20076;-59